Time,TemperatureF,DewpointF,PressureIn,WindDirection,WindDirectionDegrees,WindSpeedMPH,WindSpeedGustMPH,Humidity,HourlyPrecipIn,Conditions,Clouds,dailyrainin,SoftwareType,DateUTC
2013-04-27 00:01:00,43.5,35.8,30.35,SSE,149,0.0,1.0,74,0.00,,,0.00,LWC V1.12 B30,2013-04-27 04:01:00,
2013-04-27 00:03:00,43.5,36.1,30.35,SSE,149,0.0,0.0,75,0.00,,,0.00,LWC V1.12 B30,2013-04-27 04:03:00,
2013-04-27 00:05:00,43.5,36.1,30.36,SSE,149,0.0,0.0,75,0.00,,,0.00,LWC V1.12 B30,2013-04-27 04:05:00,
2013-04-27 00:09:00,43.3,35.9,30.35,SSE,149,0.0,0.0,75,0.00,,,0.00,LWC V1.12 B30,2013-04-27 04:09:00,
2013-04-27 00:13:00,43.3,35.9,30.35,SSE,149,0.0,0.0,75,0.00,,,0.00,LWC V1.12 B30,2013-04-27 04:13:00,
2013-04-27 00:19:00,43.2,36.2,30.35,SSE,149,0.0,0.0,76,0.00,,,0.00,LWC V1.12 B30,2013-04-27 04:19:00,
2013-04-27 00:25:00,42.9,35.9,30.35,SSE,149,0.0,0.0,76,0.00,,,0.00,LWC V1.12 B30,2013-04-27 04:25:00,
2013-04-27 00:31:00,42.8,36.1,30.35,SSE,149,0.0,0.0,77,0.00,,,0.00,LWC V1.12 B30,2013-04-27 04:31:00,
2013-04-27 00:37:00,42.6,35.9,30.34,SSE,149,0.0,0.0,77,0.00,,,0.00,LWC V1.12 B30,2013-04-27 04:37:00,
2013-04-27 00:43:00,42.5,36.1,30.34,SSE,149,0.0,0.0,78,0.00,,,0.00,LWC V1.12 B30,2013-04-27 04:43:00,
2013-04-27 00:49:00,42.5,36.1,30.34,SSE,149,0.0,0.0,78,0.00,,,0.00,LWC V1.12 B30,2013-04-27 04:49:00,
2013-04-27 00:55:00,42.3,36.3,30.34,SSE,149,0.0,0.0,79,0.00,,,0.00,LWC V1.12 B30,2013-04-27 04:55:00,
2013-04-27 01:01:00,42.3,36.3,30.34,SSE,149,0.0,0.0,79,0.00,,,0.00,LWC V1.12 B30,2013-04-27 05:01:00,
2013-04-27 01:07:00,42.3,36.3,30.34,SSE,149,0.0,0.0,79,0.00,,,0.00,LWC V1.12 B30,2013-04-27 05:07:00,
2013-04-27 01:13:00,42.3,36.3,30.34,SSE,149,0.0,0.0,79,0.00,,,0.00,LWC V1.12 B30,2013-04-27 05:13:00,
2013-04-27 01:19:00,42.2,36.5,30.34,SSW,202,0.0,1.0,80,0.00,,,0.00,LWC V1.12 B30,2013-04-27 05:19:00,
2013-04-27 01:25:00,42.1,36.4,30.34,SSW,200,0.0,1.0,80,0.00,,,0.00,LWC V1.12 B30,2013-04-27 05:25:00,
2013-04-27 01:31:00,41.9,36.5,30.34,SSW,200,0.0,0.0,81,0.00,,,0.00,LWC V1.12 B30,2013-04-27 05:31:00,
2013-04-27 01:37:00,41.8,36.4,30.34,SSW,200,0.0,0.0,81,0.00,,,0.00,LWC V1.12 B30,2013-04-27 05:37:00,
2013-04-27 01:43:00,41.5,36.1,30.34,SSW,200,0.0,0.0,81,0.00,,,0.00,LWC V1.12 B30,2013-04-27 05:43:00,
2013-04-27 01:49:00,41.2,35.8,30.34,SSW,200,0.0,0.0,81,0.00,,,0.00,LWC V1.12 B30,2013-04-27 05:49:00,
2013-04-27 01:55:00,41.1,36.0,30.33,SSW,200,0.0,0.0,82,0.00,,,0.00,LWC V1.12 B30,2013-04-27 05:55:00,
2013-04-27 02:01:00,40.9,36.1,30.33,SSW,200,0.0,0.0,83,0.00,,,0.00,LWC V1.12 B30,2013-04-27 06:01:00,
2013-04-27 02:07:00,40.8,36.0,30.33,SSW,200,0.0,0.0,83,0.00,,,0.00,LWC V1.12 B30,2013-04-27 06:07:00,
2013-04-27 02:13:00,40.6,36.2,30.34,SSW,200,0.0,0.0,84,0.00,,,0.00,LWC V1.12 B30,2013-04-27 06:13:00,
2013-04-27 02:19:00,40.5,36.1,30.33,SSW,200,0.0,0.0,84,0.00,,,0.00,LWC V1.12 B30,2013-04-27 06:19:00,
2013-04-27 02:25:00,40.2,35.8,30.34,SSW,200,0.0,0.0,84,0.00,,,0.00,LWC V1.12 B30,2013-04-27 06:25:00,
2013-04-27 02:31:00,39.8,35.7,30.34,SSW,200,0.0,0.0,85,0.00,,,0.00,LWC V1.12 B30,2013-04-27 06:31:00,
2013-04-27 02:37:00,39.6,35.5,30.34,SSW,200,0.0,0.0,85,0.00,,,0.00,LWC V1.12 B30,2013-04-27 06:37:00,
2013-04-27 02:43:00,39.5,35.7,30.33,SSW,200,0.0,0.0,86,0.00,,,0.00,LWC V1.12 B30,2013-04-27 06:43:00,
2013-04-27 02:49:00,39.5,35.7,30.33,SSW,200,0.0,0.0,86,0.00,,,0.00,LWC V1.12 B30,2013-04-27 06:49:00,
2013-04-27 02:55:00,39.3,35.8,30.33,SSW,200,0.0,0.0,87,0.00,,,0.00,LWC V1.12 B30,2013-04-27 06:55:00,
2013-04-27 03:01:00,39.3,35.8,30.33,SSW,200,0.0,0.0,87,0.00,,,0.00,LWC V1.12 B30,2013-04-27 07:01:00,
2013-04-27 03:07:00,39.2,35.7,30.33,SSW,200,0.0,0.0,87,0.00,,,0.00,LWC V1.12 B30,2013-04-27 07:07:00,
2013-04-27 03:13:00,38.8,35.3,30.33,SSW,200,0.0,0.0,87,0.00,,,0.00,LWC V1.12 B30,2013-04-27 07:13:00,
2013-04-27 03:19:00,38.3,34.8,30.33,SSW,200,0.0,0.0,87,0.00,,,0.00,LWC V1.12 B30,2013-04-27 07:19:00,
2013-04-27 03:25:00,37.9,34.4,30.32,SSW,200,0.0,0.0,87,0.00,,,0.00,LWC V1.12 B30,2013-04-27 07:25:00,
2013-04-27 03:31:00,37.8,34.6,30.32,SSW,200,0.0,0.0,88,0.00,,,0.00,LWC V1.12 B30,2013-04-27 07:31:00,
2013-04-27 03:37:00,37.5,34.6,30.32,SSW,200,0.0,0.0,89,0.00,,,0.00,LWC V1.12 B30,2013-04-27 07:37:00,
2013-04-27 03:43:00,37.3,34.4,30.32,SSW,200,0.0,0.0,89,0.00,,,0.00,LWC V1.12 B30,2013-04-27 07:43:00,
2013-04-27 03:49:00,37.2,34.3,30.32,SSW,200,0.0,0.0,89,0.00,,,0.00,LWC V1.12 B30,2013-04-27 07:49:00,
2013-04-27 03:55:00,37.0,34.1,30.32,SSW,200,0.0,0.0,89,0.00,,,0.00,LWC V1.12 B30,2013-04-27 07:55:00,
2013-04-27 04:01:00,36.9,34.0,30.32,SSW,200,0.0,0.0,89,0.00,,,0.00,LWC V1.12 B30,2013-04-27 08:01:00,
2013-04-27 04:07:00,36.9,34.2,30.32,SSW,200,0.0,0.0,90,0.00,,,0.00,LWC V1.12 B30,2013-04-27 08:07:00,
2013-04-27 04:13:00,36.6,33.9,30.32,SSW,200,0.0,0.0,90,0.00,,,0.00,LWC V1.12 B30,2013-04-27 08:13:00,
2013-04-27 04:19:00,36.5,33.9,30.32,SSW,200,0.0,0.0,90,0.00,,,0.00,LWC V1.12 B30,2013-04-27 08:19:00,
2013-04-27 04:25:00,36.3,33.7,30.32,SSW,200,0.0,0.0,90,0.00,,,0.00,LWC V1.12 B30,2013-04-27 08:25:00,
2013-04-27 04:31:00,36.0,33.4,30.32,SSW,200,0.0,0.0,90,0.00,,,0.00,LWC V1.12 B30,2013-04-27 08:31:00,
2013-04-27 04:37:00,35.9,33.3,30.32,SSW,200,0.0,0.0,90,0.00,,,0.00,LWC V1.12 B30,2013-04-27 08:37:00,
2013-04-27 04:43:00,35.8,33.2,30.32,SSW,200,0.0,0.0,90,0.00,,,0.00,LWC V1.12 B30,2013-04-27 08:43:00,
2013-04-27 04:49:00,35.6,33.2,30.32,SSW,200,0.0,0.0,91,0.00,,,0.00,LWC V1.12 B30,2013-04-27 08:49:00,
2013-04-27 04:55:00,35.9,33.8,30.32,SSW,200,0.0,0.0,92,0.00,,,0.00,LWC V1.12 B30,2013-04-27 08:55:00,
2013-04-27 05:01:00,36.2,34.1,30.32,SSW,200,0.0,0.0,92,0.00,,,0.00,LWC V1.12 B30,2013-04-27 09:01:00,
2013-04-27 05:07:00,36.3,34.2,30.32,SSW,200,0.0,0.0,92,0.00,,,0.00,LWC V1.12 B30,2013-04-27 09:07:00,
2013-04-27 05:13:00,36.2,34.1,30.32,SSW,200,0.0,0.0,92,0.00,,,0.00,LWC V1.12 B30,2013-04-27 09:13:00,
2013-04-27 05:19:00,35.9,33.8,30.32,SSW,200,0.0,0.0,92,0.00,,,0.00,LWC V1.12 B30,2013-04-27 09:19:00,
2013-04-27 05:25:00,35.9,33.8,30.32,SSW,200,0.0,0.0,92,0.00,,,0.00,LWC V1.12 B30,2013-04-27 09:25:00,
2013-04-27 05:31:00,35.8,33.7,30.32,SSW,200,0.0,0.0,92,0.00,,,0.00,LWC V1.12 B30,2013-04-27 09:31:00,
2013-04-27 05:37:00,35.8,33.7,30.32,SSW,200,0.0,0.0,92,0.00,,,0.00,LWC V1.12 B30,2013-04-27 09:37:00,
2013-04-27 05:43:00,35.8,33.7,30.32,SSW,200,0.0,0.0,92,0.00,,,0.00,LWC V1.12 B30,2013-04-27 09:43:00,
2013-04-27 05:49:00,35.8,34.0,30.31,SSW,200,0.0,0.0,93,0.00,,,0.00,LWC V1.12 B30,2013-04-27 09:49:00,
2013-04-27 05:55:00,35.8,33.7,30.31,SSW,200,0.0,0.0,92,0.00,,,0.00,LWC V1.12 B30,2013-04-27 09:55:00,
2013-04-27 06:01:00,35.5,33.7,30.31,SSW,200,0.0,0.0,93,0.00,,,0.00,LWC V1.12 B30,2013-04-27 10:01:00,
2013-04-27 06:07:00,35.3,33.5,30.31,SSW,200,0.0,0.0,93,0.00,,,0.00,LWC V1.12 B30,2013-04-27 10:07:00,
2013-04-27 06:13:00,35.5,33.7,30.31,SSW,200,0.0,0.0,93,0.00,,,0.00,LWC V1.12 B30,2013-04-27 10:13:00,
2013-04-27 06:19:00,35.5,33.7,30.30,SSW,200,0.0,0.0,93,0.00,,,0.00,LWC V1.12 B30,2013-04-27 10:19:00,
2013-04-27 06:25:00,35.3,33.5,30.30,SSW,200,0.0,0.0,93,0.00,,,0.00,LWC V1.12 B30,2013-04-27 10:25:00,
2013-04-27 06:31:00,35.2,33.4,30.30,SSW,200,0.0,0.0,93,0.00,,,0.00,LWC V1.12 B30,2013-04-27 10:31:00,
2013-04-27 06:37:00,34.9,33.1,30.31,SSW,200,0.0,0.0,93,0.00,,,0.00,LWC V1.12 B30,2013-04-27 10:37:00,
2013-04-27 06:43:00,34.6,32.8,30.31,SSW,200,0.0,0.0,93,0.00,,,0.00,LWC V1.12 B30,2013-04-27 10:43:00,
2013-04-27 06:49:00,34.4,32.6,30.30,SSW,200,0.0,0.0,93,0.00,,,0.00,LWC V1.12 B30,2013-04-27 10:49:00,
2013-04-27 06:55:00,34.3,32.5,30.31,SSW,200,0.0,0.0,93,0.00,,,0.00,LWC V1.12 B30,2013-04-27 10:55:00,
2013-04-27 07:01:00,34.4,32.6,30.30,SSW,200,0.0,0.0,93,0.00,,,0.00,LWC V1.12 B30,2013-04-27 11:01:00,
2013-04-27 07:07:00,34.4,32.6,30.30,SSW,200,0.0,0.0,93,0.00,,,0.00,LWC V1.12 B30,2013-04-27 11:07:00,
2013-04-27 07:13:00,34.4,32.9,30.30,SSW,201,0.0,0.0,94,0.00,,,0.00,LWC V1.12 B30,2013-04-27 11:13:00,
2013-04-27 07:19:00,34.7,33.2,30.30,SSW,201,0.0,0.0,94,0.00,,,0.00,LWC V1.12 B30,2013-04-27 11:19:00,
2013-04-27 07:25:00,34.9,33.4,30.31,SSW,201,0.0,0.0,94,0.00,,,0.00,LWC V1.12 B30,2013-04-27 11:25:00,
2013-04-27 07:31:00,35.5,33.9,30.31,SSW,202,0.0,0.0,94,0.00,,,0.00,LWC V1.12 B30,2013-04-27 11:31:00,
2013-04-27 07:37:00,36.0,34.4,30.31,SSW,202,0.0,0.0,94,0.00,,,0.00,LWC V1.12 B30,2013-04-27 11:37:00,
2013-04-27 07:43:00,36.6,35.3,30.31,SSW,202,0.0,0.0,95,0.00,,,0.00,LWC V1.12 B30,2013-04-27 11:43:00,
2013-04-27 07:49:00,37.6,36.3,30.31,SSW,202,0.0,0.0,95,0.00,,,0.00,LWC V1.12 B30,2013-04-27 11:49:00,
2013-04-27 07:55:00,38.2,36.9,30.32,SSW,202,0.0,0.0,95,0.00,,,0.00,LWC V1.12 B30,2013-04-27 11:55:00,
2013-04-27 08:01:00,38.8,37.5,30.32,SSW,202,0.0,0.0,95,0.00,,,0.00,LWC V1.12 B30,2013-04-27 12:01:00,
2013-04-27 08:07:00,39.5,38.2,30.32,SSW,202,0.0,1.0,95,0.00,,,0.00,LWC V1.12 B30,2013-04-27 12:07:00,
2013-04-27 08:13:00,40.2,38.9,30.32,SSW,202,0.0,0.0,95,0.00,,,0.00,LWC V1.12 B30,2013-04-27 12:13:00,
2013-04-27 08:19:00,40.9,39.6,30.32,SSW,202,0.0,1.0,95,0.00,,,0.00,LWC V1.12 B30,2013-04-27 12:19:00,
2013-04-27 08:25:00,41.8,39.9,30.32,SSW,205,2.0,3.0,93,0.00,,,0.00,LWC V1.12 B30,2013-04-27 12:25:00,
2013-04-27 08:31:00,42.9,39.9,30.33,SSW,202,0.0,1.0,89,0.00,,,0.00,LWC V1.12 B30,2013-04-27 12:31:00,
2013-04-27 08:37:00,44.1,39.9,30.33,SSW,207,1.0,3.0,85,0.00,,,0.00,LWC V1.12 B30,2013-04-27 12:37:00,
2013-04-27 08:43:00,45.1,39.6,30.32,SSW,199,0.0,4.0,81,0.00,,,0.00,LWC V1.12 B30,2013-04-27 12:43:00,
2013-04-27 08:49:00,46.1,40.0,30.32,SSW,202,0.0,1.0,79,0.00,,,0.00,LWC V1.12 B30,2013-04-27 12:49:00,
2013-04-27 08:55:00,47.4,39.2,30.32,SSW,201,2.0,3.0,73,0.00,,,0.00,LWC V1.12 B30,2013-04-27 12:55:00,
2013-04-27 09:01:00,48.6,38.1,30.32,SSW,204,1.0,4.0,67,0.00,,,0.00,LWC V1.12 B30,2013-04-27 13:01:00,
2013-04-27 09:07:00,49.6,37.9,30.32,SSW,203,4.0,5.0,64,0.00,,,0.00,LWC V1.12 B30,2013-04-27 13:07:00,
2013-04-27 09:13:00,50.5,37.1,30.32,SSW,203,0.0,3.0,60,0.00,,,0.00,LWC V1.12 B30,2013-04-27 13:13:00,
2013-04-27 09:19:00,51.4,37.1,30.31,SW,214,2.0,2.0,58,0.00,,,0.00,LWC V1.12 B30,2013-04-27 13:19:00,
2013-04-27 09:25:00,52.3,37.1,30.31,SSW,205,0.0,4.0,56,0.00,,,0.00,LWC V1.12 B30,2013-04-27 13:25:00,
2013-04-27 09:31:00,53.3,36.6,30.31,South,173,0.0,1.0,53,0.00,,,0.00,LWC V1.12 B30,2013-04-27 13:31:00,
2013-04-27 09:37:00,54.5,35.7,30.31,East,80,0.0,2.0,49,0.00,,,0.00,LWC V1.12 B30,2013-04-27 13:37:00,
2013-04-27 09:43:00,55.4,34.4,30.31,SW,217,3.0,6.0,45,0.00,,,0.00,LWC V1.12 B30,2013-04-27 13:43:00,
2013-04-27 09:49:00,55.4,32.7,30.30,SSW,210,4.0,6.0,42,0.00,,,0.00,LWC V1.12 B30,2013-04-27 13:49:00,
2013-04-27 09:55:00,55.7,33.6,30.30,SSE,167,2.0,6.0,43,0.00,,,0.00,LWC V1.12 B30,2013-04-27 13:55:00,
2013-04-27 10:01:00,56.2,33.4,30.30,SSW,206,3.0,5.0,42,0.00,,,0.00,LWC V1.12 B30,2013-04-27 14:01:00,
2013-04-27 10:07:00,56.5,33.7,30.30,SSW,206,4.0,5.0,42,0.00,,,0.00,LWC V1.12 B30,2013-04-27 14:07:00,
2013-04-27 10:13:00,57.0,34.1,30.30,SSW,209,0.0,2.0,42,0.00,,,0.00,LWC V1.12 B30,2013-04-27 14:13:00,
2013-04-27 10:19:00,58.3,32.8,30.29,SSW,198,1.0,8.0,38,0.00,,,0.00,LWC V1.12 B30,2013-04-27 14:19:00,
2013-04-27 10:25:00,58.3,32.8,30.29,SW,234,1.0,7.0,38,0.00,,,0.00,LWC V1.12 B30,2013-04-27 14:25:00,
2013-04-27 10:31:00,58.7,33.2,30.29,SSE,154,2.0,4.0,38,0.00,,,0.00,LWC V1.12 B30,2013-04-27 14:31:00,
2013-04-27 10:37:00,59.0,32.8,30.29,WSW,244,5.0,5.0,37,0.00,,,0.00,LWC V1.12 B30,2013-04-27 14:37:00,
2013-04-27 10:43:00,59.3,34.3,30.29,SW,230,3.0,3.0,39,0.00,,,0.00,LWC V1.12 B30,2013-04-27 14:43:00,
2013-04-27 10:49:00,59.6,33.3,30.29,NNW,337,1.0,2.0,37,0.00,,,0.00,LWC V1.12 B30,2013-04-27 14:49:00,
2013-04-27 10:55:00,59.8,33.5,30.29,SSW,205,0.0,4.0,37,0.00,,,0.00,LWC V1.12 B30,2013-04-27 14:55:00,
2013-04-27 11:01:00,59.9,33.6,30.29,ENE,72,1.0,4.0,37,0.00,,,0.00,LWC V1.12 B30,2013-04-27 15:01:00,
2013-04-27 11:07:00,60.2,33.8,30.29,South,175,1.0,7.0,37,0.00,,,0.00,LWC V1.12 B30,2013-04-27 15:07:00,
2013-04-27 11:13:00,60.1,33.1,30.29,East,88,0.0,2.0,36,0.00,,,0.00,LWC V1.12 B30,2013-04-27 15:13:00,
2013-04-27 11:19:00,60.4,32.6,30.29,SSE,159,0.0,8.0,35,0.00,,,0.00,LWC V1.12 B30,2013-04-27 15:19:00,
2013-04-27 11:25:00,60.5,32.7,30.28,ESE,105,1.0,2.0,35,0.00,,,0.00,LWC V1.12 B30,2013-04-27 15:25:00,
2013-04-27 11:31:00,61.2,33.3,30.28,SSE,153,0.0,2.0,35,0.00,,,0.00,LWC V1.12 B30,2013-04-27 15:31:00,
2013-04-27 11:37:00,61.6,33.7,30.28,East,91,4.0,4.0,35,0.00,,,0.00,LWC V1.12 B30,2013-04-27 15:37:00,
2013-04-27 11:43:00,61.3,32.0,30.28,SE,124,0.0,6.0,33,0.00,,,0.00,LWC V1.12 B30,2013-04-27 15:43:00,
2013-04-27 11:49:00,61.0,33.2,30.27,ESE,121,1.0,2.0,35,0.00,,,0.00,LWC V1.12 B30,2013-04-27 15:49:00,
2013-04-27 11:55:00,61.6,33.0,30.27,ESE,111,0.0,5.0,34,0.00,,,0.00,LWC V1.12 B30,2013-04-27 15:55:00,
2013-04-27 12:01:00,61.8,33.1,30.27,SE,130,1.0,4.0,34,0.00,,,0.00,LWC V1.12 B30,2013-04-27 16:01:00,
2013-04-27 12:07:00,62.0,35.4,30.27,SW,219,1.0,3.0,37,0.00,,,0.00,LWC V1.12 B30,2013-04-27 16:07:00,
2013-04-27 12:13:00,62.4,35.8,30.26,SSW,200,4.0,8.0,37,0.00,,,0.00,LWC V1.12 B30,2013-04-27 16:13:00,
2013-04-27 12:19:00,62.6,34.6,30.26,SSE,164,1.0,3.0,35,0.00,,,0.00,LWC V1.12 B30,2013-04-27 16:19:00,
2013-04-27 12:25:00,62.7,35.4,30.26,ESE,108,2.0,5.0,36,0.00,,,0.00,LWC V1.12 B30,2013-04-27 16:25:00,
2013-04-27 12:31:00,62.7,36.0,30.25,SSE,163,1.0,8.0,37,0.00,,,0.00,LWC V1.12 B30,2013-04-27 16:31:00,
2013-04-27 12:37:00,63.1,35.0,30.25,South,181,2.0,5.0,35,0.00,,,0.00,LWC V1.12 B30,2013-04-27 16:37:00,
2013-04-27 12:43:00,63.4,35.3,30.25,ESE,103,0.0,4.0,35,0.00,,,0.00,LWC V1.12 B30,2013-04-27 16:43:00,
2013-04-27 12:49:00,63.4,35.3,30.25,SE,134,1.0,6.0,35,0.00,,,0.00,LWC V1.12 B30,2013-04-27 16:49:00,
2013-04-27 12:55:00,63.5,34.6,30.25,East,88,3.0,3.0,34,0.00,,,0.00,LWC V1.12 B30,2013-04-27 16:55:00,
2013-04-27 13:01:00,63.7,34.8,30.24,West,269,2.0,5.0,34,0.00,,,0.00,LWC V1.12 B30,2013-04-27 17:01:00,
2013-04-27 13:07:00,63.9,32.7,30.24,East,84,0.0,3.0,31,0.00,,,0.00,LWC V1.12 B30,2013-04-27 17:07:00,
2013-04-27 13:13:00,63.7,32.5,30.24,ESE,104,4.0,8.0,31,0.00,,,0.00,LWC V1.12 B30,2013-04-27 17:13:00,
2013-04-27 13:19:00,64.0,35.1,30.24,NE,50,2.0,4.0,34,0.00,,,0.00,LWC V1.12 B30,2013-04-27 17:19:00,
2013-04-27 13:25:00,64.3,33.0,30.24,ESE,105,1.0,4.0,31,0.00,,,0.00,LWC V1.12 B30,2013-04-27 17:25:00,
2013-04-27 13:31:00,65.2,31.3,30.24,East,83,3.0,5.0,28,0.00,,,0.00,LWC V1.12 B30,2013-04-27 17:31:00,
2013-04-27 13:37:00,65.6,32.5,30.23,South,187,3.0,4.0,29,0.00,,,0.00,LWC V1.12 B30,2013-04-27 17:37:00,
2013-04-27 13:43:00,66.0,34.5,30.23,ESE,115,5.0,5.0,31,0.00,,,0.00,LWC V1.12 B30,2013-04-27 17:43:00,
2013-04-27 13:49:00,65.8,33.5,30.23,WSW,240,0.0,4.0,30,0.00,,,0.00,LWC V1.12 B30,2013-04-27 17:49:00,
2013-04-27 13:55:00,66.3,33.1,30.23,SSE,165,5.0,5.0,29,0.00,,,0.00,LWC V1.12 B30,2013-04-27 17:55:00,
2013-04-27 14:01:00,66.4,33.2,30.23,ENE,77,2.0,6.0,29,0.00,,,0.00,LWC V1.12 B30,2013-04-27 18:01:00,
2013-04-27 14:07:00,66.4,32.3,30.23,ENE,77,2.0,5.0,28,0.00,,,0.00,LWC V1.12 B30,2013-04-27 18:07:00,
2013-04-27 14:13:00,66.3,33.1,30.22,South,178,4.0,5.0,29,0.00,,,0.00,LWC V1.12 B30,2013-04-27 18:13:00,
2013-04-27 14:19:00,66.8,31.7,30.22,West,278,2.0,7.0,27,0.00,,,0.00,LWC V1.12 B30,2013-04-27 18:19:00,
2013-04-27 14:25:00,67.3,32.2,30.22,SW,221,4.0,9.0,27,0.00,,,0.00,LWC V1.12 B30,2013-04-27 18:25:00,
2013-04-27 14:31:00,67.4,32.3,30.21,SSE,153,0.0,9.0,27,0.00,,,0.00,LWC V1.12 B30,2013-04-27 18:31:00,
2013-04-27 14:37:00,67.4,32.3,30.21,SSW,208,1.0,7.0,27,0.00,,,0.00,LWC V1.12 B30,2013-04-27 18:37:00,
2013-04-27 14:43:00,68.1,32.9,30.21,South,172,1.0,1.0,27,0.00,,,0.00,LWC V1.12 B30,2013-04-27 18:43:00,
2013-04-27 14:49:00,67.4,32.3,30.21,SSE,155,4.0,5.0,27,0.00,,,0.00,LWC V1.12 B30,2013-04-27 18:49:00,
2013-04-27 14:55:00,67.8,33.5,30.20,East,93,5.0,6.0,28,0.00,,,0.00,LWC V1.12 B30,2013-04-27 18:55:00,
2013-04-27 15:01:00,67.9,31.7,30.20,SSW,211,0.0,2.0,26,0.00,,,0.00,LWC V1.12 B30,2013-04-27 19:01:00,
2013-04-27 15:07:00,68.3,32.1,30.20,SSW,200,4.0,8.0,26,0.00,,,0.00,LWC V1.12 B30,2013-04-27 19:07:00,
2013-04-27 15:13:00,68.1,31.9,30.20,ESE,121,2.0,7.0,26,0.00,,,0.00,LWC V1.12 B30,2013-04-27 19:13:00,
2013-04-27 15:19:00,67.9,30.8,30.20,SW,225,1.0,5.0,25,0.00,,,0.00,LWC V1.12 B30,2013-04-27 19:19:00,
2013-04-27 15:25:00,67.8,28.6,30.20,SSW,195,1.0,10.0,23,0.00,,,0.00,LWC V1.12 B30,2013-04-27 19:25:00,
2013-04-27 15:31:00,67.9,25.4,30.20,East,94,0.0,2.0,20,0.00,,,0.00,LWC V1.12 B30,2013-04-27 19:31:00,
2013-04-27 15:37:00,68.4,26.9,30.19,SSW,213,2.0,6.0,21,0.00,,,0.00,LWC V1.12 B30,2013-04-27 19:37:00,
2013-04-27 15:43:00,68.3,28.0,30.19,SSE,157,5.0,7.0,22,0.00,,,0.00,LWC V1.12 B30,2013-04-27 19:43:00,
2013-04-27 15:49:00,68.1,29.9,30.19,SE,142,0.0,5.0,24,0.00,,,0.00,LWC V1.12 B30,2013-04-27 19:49:00,
2013-04-27 15:55:00,68.3,30.1,30.18,SE,138,1.0,4.0,24,0.00,,,0.00,LWC V1.12 B30,2013-04-27 19:55:00,
2013-04-27 16:01:00,68.3,30.1,30.18,East,86,2.0,5.0,24,0.00,,,0.00,LWC V1.12 B30,2013-04-27 20:01:00,
2013-04-27 16:07:00,67.4,31.3,30.18,East,92,0.0,5.0,26,0.00,,,0.00,LWC V1.12 B30,2013-04-27 20:07:00,
2013-04-27 16:13:00,67.9,32.7,30.17,SW,216,2.0,6.0,27,0.00,,,0.00,LWC V1.12 B30,2013-04-27 20:13:00,
2013-04-27 16:19:00,68.3,33.0,30.17,ENE,78,2.0,5.0,27,0.00,,,0.00,LWC V1.12 B30,2013-04-27 20:19:00,
2013-04-27 16:25:00,68.3,33.0,30.17,SW,220,2.0,3.0,27,0.00,,,0.00,LWC V1.12 B30,2013-04-27 20:25:00,
2013-04-27 16:31:00,68.3,33.9,30.17,East,89,1.0,2.0,28,0.00,,,0.00,LWC V1.12 B30,2013-04-27 20:31:00,
2013-04-27 16:37:00,67.9,35.3,30.17,WSW,240,1.0,2.0,30,0.00,,,0.00,LWC V1.12 B30,2013-04-27 20:37:00,
2013-04-27 16:43:00,68.3,33.9,30.16,SW,220,2.0,3.0,28,0.00,,,0.00,LWC V1.12 B30,2013-04-27 20:43:00,
2013-04-27 16:49:00,68.1,32.9,30.16,East,91,1.0,4.0,27,0.00,,,0.00,LWC V1.12 B30,2013-04-27 20:49:00,
2013-04-27 16:55:00,68.3,34.8,30.16,South,187,1.0,1.0,29,0.00,,,0.00,LWC V1.12 B30,2013-04-27 20:55:00,
2013-04-27 17:01:00,68.3,35.7,30.16,SE,142,2.0,2.0,30,0.00,,,0.00,LWC V1.12 B30,2013-04-27 21:01:00,
2013-04-27 17:07:00,68.6,35.1,30.15,ESE,121,2.0,5.0,29,0.00,,,0.00,LWC V1.12 B30,2013-04-27 21:07:00,
2013-04-27 17:13:00,68.8,34.4,30.15,SSW,200,1.0,3.0,28,0.00,,,0.00,LWC V1.12 B30,2013-04-27 21:13:00,
2013-04-27 17:19:00,68.8,35.2,30.15,ESE,115,1.0,1.0,29,0.00,,,0.00,LWC V1.12 B30,2013-04-27 21:19:00,
2013-04-27 17:25:00,68.6,34.2,30.15,SW,228,5.0,6.0,28,0.00,,,0.00,LWC V1.12 B30,2013-04-27 21:25:00,
2013-04-27 17:31:00,68.3,35.7,30.14,East,96,1.0,5.0,30,0.00,,,0.00,LWC V1.12 B30,2013-04-27 21:31:00,
2013-04-27 17:37:00,67.6,33.3,30.15,ENE,62,2.0,3.0,28,0.00,,,0.00,LWC V1.12 B30,2013-04-27 21:37:00,
2013-04-27 20:39:00,60.7,32.9,30.11,ESE,108,0.0,1.0,35,0.00,,,0.00,LWC V1.12 B30,2013-04-28 00:39:00,
2013-04-27 20:45:00,60.4,32.6,30.11,ESE,108,0.0,1.0,35,0.00,,,0.00,LWC V1.12 B30,2013-04-28 00:45:00,
2013-04-27 20:51:00,60.1,33.1,30.11,ESE,108,0.0,1.0,36,0.00,,,0.00,LWC V1.12 B30,2013-04-28 00:51:00,
2013-04-27 20:57:00,59.6,32.6,30.11,ESE,108,0.0,1.0,36,0.00,,,0.00,LWC V1.12 B30,2013-04-28 00:57:00,
2013-04-27 21:03:00,59.3,33.0,30.11,ESE,108,1.0,1.0,37,0.00,,,0.00,LWC V1.12 B30,2013-04-28 01:03:00,
2013-04-27 21:09:00,59.2,32.9,30.11,ESE,108,0.0,1.0,37,0.00,,,0.00,LWC V1.12 B30,2013-04-28 01:09:00,
2013-04-27 21:15:00,58.9,33.3,30.11,ESE,108,0.0,1.0,38,0.00,,,0.00,LWC V1.12 B30,2013-04-28 01:15:00,
2013-04-27 21:21:00,58.4,33.5,30.11,ESE,108,0.0,1.0,39,0.00,,,0.00,LWC V1.12 B30,2013-04-28 01:21:00,
2013-04-27 21:27:00,58.1,33.3,30.11,ESE,108,0.0,1.0,39,0.00,,,0.00,LWC V1.12 B30,2013-04-28 01:27:00,
2013-04-27 21:33:00,57.8,33.6,30.11,ESE,108,0.0,1.0,40,0.00,,,0.00,LWC V1.12 B30,2013-04-28 01:33:00,
2013-04-27 21:40:00,57.5,34.0,30.11,ESE,108,0.0,0.0,41,0.00,,,0.00,LWC V1.12 B30,2013-04-28 01:40:00,
2013-04-27 21:45:00,56.9,34.0,30.11,ESE,108,0.0,0.0,42,0.00,,,0.00,LWC V1.12 B30,2013-04-28 01:45:00,
2013-04-27 21:51:00,56.5,34.9,30.11,ESE,108,0.0,0.0,44,0.00,,,0.00,LWC V1.12 B30,2013-04-28 01:51:00,
2013-04-27 21:57:00,55.7,34.7,30.11,ESE,108,0.0,0.0,45,0.00,,,0.00,LWC V1.12 B30,2013-04-28 01:57:00,
2013-04-27 22:03:00,55.1,34.7,30.11,ESE,108,0.0,0.0,46,0.00,,,0.00,LWC V1.12 B30,2013-04-28 02:03:00,
2013-04-27 22:09:00,54.5,34.7,30.11,ESE,108,0.0,0.0,47,0.00,,,0.00,LWC V1.12 B30,2013-04-28 02:09:00,
2013-04-27 22:15:00,53.9,35.2,30.11,ESE,108,0.0,0.0,49,0.00,,,0.00,LWC V1.12 B30,2013-04-28 02:15:00,
2013-04-27 22:21:00,53.3,35.1,30.10,ESE,108,0.0,0.0,50,0.00,,,0.00,LWC V1.12 B30,2013-04-28 02:21:00,
2013-04-27 22:27:00,52.9,35.3,30.10,ESE,108,0.0,0.0,51,0.00,,,0.00,LWC V1.12 B30,2013-04-28 02:27:00,
2013-04-27 22:34:00,52.8,36.1,30.11,ESE,108,0.0,0.0,53,0.00,,,0.00,LWC V1.12 B30,2013-04-28 02:34:00,
2013-04-27 22:42:00,52.6,36.0,30.10,ESE,108,0.0,1.0,53,0.00,,,0.00,LWC V1.12 B30,2013-04-28 02:42:00,
2013-04-27 22:48:00,52.5,35.9,30.10,ESE,108,0.0,1.0,53,0.00,,,0.00,LWC V1.12 B30,2013-04-28 02:48:00,
2013-04-27 22:54:00,52.3,36.2,30.10,ESE,108,0.0,0.0,54,0.00,,,0.00,LWC V1.12 B30,2013-04-28 02:54:00,
2013-04-27 23:00:00,52.0,36.3,30.10,ESE,108,0.0,0.0,55,0.00,,,0.00,LWC V1.12 B30,2013-04-28 03:00:00,
2013-04-27 23:06:00,51.6,36.4,30.10,ESE,108,0.0,0.0,56,0.00,,,0.00,LWC V1.12 B30,2013-04-28 03:06:00,
2013-04-27 23:12:00,51.1,36.0,30.09,ESE,108,0.0,1.0,56,0.00,,,0.00,LWC V1.12 B30,2013-04-28 03:12:00,
2013-04-27 23:18:00,51.6,36.4,30.09,East,101,0.0,2.0,56,0.00,,,0.00,LWC V1.12 B30,2013-04-28 03:18:00,
2013-04-27 23:24:00,51.9,36.2,30.09,East,101,0.0,0.0,55,0.00,,,0.00,LWC V1.12 B30,2013-04-28 03:24:00,
2013-04-27 23:30:00,51.9,35.8,30.08,East,101,0.0,0.0,54,0.00,,,0.00,LWC V1.12 B30,2013-04-28 03:30:00,
2013-04-27 23:36:00,51.9,36.2,30.08,East,101,0.0,0.0,55,0.00,,,0.00,LWC V1.12 B30,2013-04-28 03:36:00,
2013-04-27 23:42:00,51.7,36.1,30.08,East,101,0.0,0.0,55,0.00,,,0.00,LWC V1.12 B30,2013-04-28 03:42:00,
2013-04-27 23:48:00,51.6,36.4,30.08,East,101,0.0,0.0,56,0.00,,,0.00,LWC V1.12 B30,2013-04-28 03:48:00,
2013-04-27 23:54:00,51.4,36.2,30.08,East,101,0.0,0.0,56,0.00,,,0.00,LWC V1.12 B30,2013-04-28 03:54:00,